createdAt,value
2018-12-22T00:03:36.236Z,3.00
2018-12-22T00:06:10.400Z,3.00
2018-12-22T00:08:43.414Z,3.00
2018-12-22T00:11:16.568Z,3.00
2018-12-22T00:13:54.203Z,2.33
2018-12-22T00:16:25.848Z,3.00
2018-12-22T00:18:59.241Z,2.60
2018-12-22T00:21:34.195Z,1.00
2018-12-22T00:24:05.191Z,3.00
2018-12-22T00:26:40.148Z,1.00
2018-12-22T00:29:18.089Z,1.00
2018-12-22T00:31:59.127Z,1.40
2018-12-22T00:34:38.596Z,1.00
2018-12-22T00:37:15.281Z,3.67
2018-12-22T00:39:51.582Z,2.33
2018-12-22T00:42:27.750Z,1.00
2018-12-22T00:45:09.119Z,3.00
2018-12-22T00:47:46.542Z,2.33
2018-12-22T00:50:21.711Z,3.00
2018-12-22T00:52:53.907Z,5.00
2018-12-22T00:55:27.206Z,1.80
2018-12-22T00:57:59.999Z,3.00
2018-12-22T01:00:35.269Z,3.00
2018-12-22T01:03:07.357Z,2.33
2018-12-22T01:05:45.156Z,3.00
2018-12-22T01:08:18.424Z,3.00
2018-12-22T01:10:52.795Z,5.00
2018-12-22T01:13:26.221Z,3.00
2018-12-22T01:15:58.640Z,5.00
2018-12-22T01:18:39.309Z,1.40
2018-12-22T01:21:16.177Z,3.00
2018-12-22T01:23:49.949Z,3.00
2018-12-22T01:26:21.500Z,3.00
2018-12-22T01:28:53.405Z,3.00
2018-12-22T01:31:25.510Z,3.00
2018-12-22T01:33:57.898Z,5.00
2018-12-22T01:36:28.562Z,5.00
2018-12-22T01:39:00.445Z,5.67
2018-12-22T01:41:38.083Z,5.00
2018-12-22T01:44:14.531Z,3.00
2018-12-22T01:46:45.710Z,3.00
2018-12-22T01:49:19.656Z,3.67
2018-12-22T01:51:54.205Z,5.00
2018-12-22T01:54:40.961Z,3.67
2018-12-22T01:57:18.945Z,5.00
2018-12-22T01:59:57.585Z,5.00
2018-12-22T02:02:29.700Z,3.00
2018-12-22T02:05:05.087Z,5.33
2018-12-22T02:07:38.634Z,3.00
2018-12-22T02:10:12.959Z,1.67
2018-12-22T02:12:49.895Z,5.00
2018-12-22T02:15:30.810Z,3.00
2018-12-22T02:18:05.036Z,5.00
2018-12-22T02:20:38.544Z,5.00
2018-12-22T02:23:12.260Z,3.67
2018-12-22T02:25:48.867Z,6.33
2018-12-22T02:28:20.974Z,3.00
2018-12-22T02:30:59.882Z,5.00
2018-12-22T02:36:37.097Z,3.00
2018-12-22T02:39:14.640Z,3.00
2018-12-22T02:41:47.939Z,6.33
2018-12-22T02:44:23.626Z,3.00
2018-12-22T02:46:56.896Z,4.33
2018-12-22T02:49:29.550Z,5.00
2018-12-22T02:52:04.593Z,5.00
2018-12-22T02:57:29.187Z,5.00
2018-12-22T03:00:14.723Z,3.00
2018-12-22T03:03:02.803Z,3.00
2018-12-22T03:08:53.337Z,3.00
2018-12-22T03:14:34.457Z,3.00
2018-12-22T03:17:11.263Z,3.00
2018-12-22T03:19:45.282Z,3.00
2018-12-22T03:22:33.673Z,3.00
2018-12-22T03:32:09.171Z,3.00
2018-12-22T03:34:43.117Z,1.00
2018-12-22T03:37:14.513Z,3.00
2018-12-22T03:39:50.243Z,3.00
2018-12-22T03:42:22.644Z,3.00
2018-12-22T03:44:55.473Z,3.00
2018-12-22T03:47:30.331Z,5.00
2018-12-22T03:50:04.477Z,4.33
2018-12-22T03:52:40.377Z,3.00
2018-12-22T03:55:14.999Z,3.00
2018-12-22T03:57:53.962Z,1.67
2018-12-22T04:00:30.865Z,1.00
2018-12-22T04:03:05.370Z,1.40
2018-12-22T04:05:40.962Z,2.60
2018-12-22T04:08:15.119Z,3.00
2018-12-22T04:10:49.873Z,3.00
2018-12-22T04:13:24.003Z,3.00
2018-12-22T04:15:56.717Z,3.00
2018-12-22T04:18:32.179Z,1.00
2018-12-22T04:21:08.271Z,2.33
2018-12-22T04:23:42.461Z,3.00
2018-12-22T04:26:16.599Z,3.00
2018-12-22T04:28:49.197Z,5.00
2018-12-22T04:31:23.543Z,3.67
2018-12-22T04:33:55.973Z,3.00
2018-12-22T04:36:29.626Z,3.00
2018-12-22T04:39:10.270Z,3.00
2018-12-22T04:41:45.943Z,5.00
2018-12-22T04:44:22.554Z,1.00
2018-12-22T04:46:57.957Z,3.00
2018-12-22T04:49:29.687Z,3.00
2018-12-22T04:52:05.369Z,3.00
2018-12-22T04:54:37.731Z,2.33
2018-12-22T04:57:11.842Z,3.00
2018-12-22T04:59:48.865Z,2.20
2018-12-22T05:02:21.430Z,3.00
2018-12-22T05:04:53.630Z,3.00
2018-12-22T05:07:27.393Z,4.33
2018-12-22T05:10:00.769Z,3.00
2018-12-22T05:12:35.209Z,5.00
2018-12-22T05:15:16.294Z,3.00
2018-12-22T05:17:52.358Z,3.67
2018-12-22T05:20:27.080Z,2.33
2018-12-22T05:22:59.616Z,7.00
2018-12-22T05:25:36.026Z,3.40
2018-12-22T05:28:08.414Z,3.67
2018-12-22T05:30:41.618Z,3.00
2018-12-22T05:33:13.268Z,3.00
2018-12-22T05:35:46.089Z,5.00
2018-12-22T05:38:21.271Z,3.00
2018-12-22T05:40:54.768Z,1.00
2018-12-22T05:43:27.928Z,3.00
2018-12-22T05:46:03.555Z,1.67
2018-12-22T05:48:38.785Z,3.00
2018-12-22T05:51:12.267Z,3.00
2018-12-22T05:53:46.118Z,3.00
2018-12-22T05:56:22.060Z,1.00
2018-12-22T05:58:59.089Z,3.00
2018-12-22T06:01:35.257Z,3.00
2018-12-22T06:04:08.925Z,3.00
2018-12-22T06:06:42.928Z,3.00
2018-12-22T06:09:20.502Z,1.00
2018-12-22T06:11:58.509Z,3.00
2018-12-22T06:14:32.355Z,1.00
2018-12-22T06:17:08.604Z,2.33
2018-12-22T06:19:44.946Z,3.00
2018-12-22T06:22:19.255Z,3.00
2018-12-22T06:24:54.238Z,3.00
2018-12-22T06:27:30.632Z,3.00
2018-12-22T06:30:13.863Z,1.00
2018-12-22T06:32:47.117Z,1.00
2018-12-22T06:35:20.728Z,1.00
2018-12-22T06:37:53.923Z,1.00
2018-12-22T06:40:28.091Z,1.00
2018-12-22T06:43:03.358Z,1.00
2018-12-22T06:45:39.512Z,3.00
2018-12-22T06:48:15.162Z,1.00
2018-12-22T06:50:53.450Z,1.00
2018-12-22T06:53:30.817Z,1.00
2018-12-22T06:56:03.820Z,1.00
2018-12-22T06:58:38.888Z,1.00
2018-12-22T07:01:16.263Z,1.00
2018-12-22T07:03:54.129Z,1.00
2018-12-22T07:06:30.252Z,1.00
2018-12-22T07:09:05.981Z,1.00
2018-12-22T07:11:49.103Z,1.00
2018-12-22T07:14:24.445Z,1.00
2018-12-22T07:17:03.524Z,1.00
2018-12-22T07:19:37.722Z,1.00
2018-12-22T07:22:13.045Z,1.00
2018-12-22T07:24:45.417Z,3.00
2018-12-22T07:27:22.821Z,1.00
2018-12-22T07:29:57.599Z,1.00
2018-12-22T07:32:37.333Z,1.00
2018-12-22T07:35:10.167Z,1.00
2018-12-22T07:37:45.922Z,1.00
2018-12-22T07:40:22.958Z,1.00
2018-12-22T07:43:08.092Z,1.00
2018-12-22T07:45:46.728Z,1.00
2018-12-22T07:48:24.839Z,1.00
2018-12-22T07:50:59.610Z,1.00
2018-12-22T07:53:36.197Z,1.00
2018-12-22T07:56:08.667Z,1.00
2018-12-22T07:58:42.106Z,1.00
2018-12-22T08:01:16.599Z,1.67
2018-12-22T08:03:50.662Z,1.00
2018-12-22T08:06:31.091Z,3.00
2018-12-22T08:09:07.737Z,1.00
2018-12-22T08:11:40.735Z,1.00
2018-12-22T08:14:15.928Z,1.00
2018-12-22T08:16:51.905Z,1.00
2018-12-22T08:19:26.749Z,1.00
2018-12-22T08:22:00.905Z,1.00
2018-12-22T08:24:37.383Z,1.00
2018-12-22T08:27:12.021Z,2.33
2018-12-22T08:29:47.854Z,1.00
2018-12-22T08:32:23.485Z,1.00
2018-12-22T08:35:01.496Z,1.00
2018-12-22T08:37:39.750Z,1.00
2018-12-22T08:40:16.863Z,1.00
2018-12-22T08:42:57.213Z,1.00
2018-12-22T08:45:34.987Z,1.00
2018-12-22T08:48:12.731Z,1.00
2018-12-22T08:50:49.872Z,1.00
2018-12-22T08:53:27.849Z,1.00
2018-12-22T08:56:04.818Z,1.00
2018-12-22T08:58:42.244Z,1.00
2018-12-22T09:01:15.562Z,1.67
2018-12-22T09:03:48.179Z,1.00
2018-12-22T09:06:24.323Z,1.00
2018-12-22T09:08:57.099Z,1.00
2018-12-22T09:11:31.205Z,1.00
2018-12-22T09:14:05.772Z,1.00
2018-12-22T09:16:40.464Z,1.00
2018-12-22T09:19:15.028Z,1.67
2018-12-22T09:21:49.713Z,1.00
2018-12-22T09:24:26.643Z,3.67
2018-12-22T09:27:08.266Z,1.00
2018-12-22T09:29:46.403Z,1.00
2018-12-22T09:32:24.221Z,1.00
2018-12-22T09:34:59.075Z,1.00
2018-12-22T09:37:38.560Z,3.00
2018-12-22T09:40:14.696Z,1.00
2018-12-22T09:42:48.223Z,1.00
2018-12-22T09:45:28.398Z,1.00
2018-12-22T09:48:05.058Z,1.00
2018-12-22T09:50:45.373Z,1.00
2018-12-22T09:53:22.460Z,1.00
2018-12-22T09:56:02.531Z,1.00
2018-12-22T09:58:36.255Z,1.00
2018-12-22T10:01:12.291Z,1.00
2018-12-22T10:03:48.837Z,1.00
2018-12-22T10:06:25.042Z,1.00
2018-12-22T10:08:57.209Z,1.00
2018-12-22T10:11:37.144Z,1.00
2018-12-22T10:14:15.416Z,9.75
2018-12-22T10:16:48.634Z,5.00
2018-12-22T10:19:25.147Z,1.00
2018-12-22T10:22:00.899Z,1.00
2018-12-22T10:24:39.712Z,1.00
2018-12-22T10:27:17.817Z,1.00
2018-12-22T10:29:55.578Z,1.67
2018-12-22T10:32:29.867Z,1.00
2018-12-22T10:35:06.164Z,1.00
2018-12-22T10:37:44.095Z,1.00
2018-12-22T10:40:22.345Z,1.00
2018-12-22T10:42:59.010Z,1.00
2018-12-22T10:45:33.079Z,1.00
2018-12-22T10:48:08.274Z,1.00
2018-12-22T10:50:48.222Z,1.00
2018-12-22T10:53:23.840Z,1.00
2018-12-22T10:56:03.666Z,1.00
2018-12-22T10:58:38.301Z,2.33
2018-12-22T11:01:15.078Z,1.00
2018-12-22T11:03:49.813Z,1.00
2018-12-22T11:06:23.197Z,1.00
2018-12-22T11:08:55.538Z,2.33
2018-12-22T11:11:31.916Z,1.00
2018-12-22T11:14:09.129Z,1.00
2018-12-22T11:16:42.649Z,1.00
2018-12-22T11:19:19.796Z,1.00
2018-12-22T11:21:55.336Z,1.00
2018-12-22T11:24:33.281Z,1.00
2018-12-22T11:27:07.881Z,1.00
2018-12-22T11:29:41.141Z,1.00
2018-12-22T11:32:16.049Z,1.00
2018-12-22T11:34:47.150Z,3.00
2018-12-22T11:37:20.550Z,1.67
2018-12-22T11:40:10.635Z,4.33
2018-12-22T11:42:47.922Z,1.00
2018-12-22T11:45:23.961Z,1.00
2018-12-22T11:48:07.892Z,1.00
2018-12-22T11:50:42.752Z,1.00
2018-12-22T11:53:22.351Z,1.67
2018-12-22T11:55:57.570Z,1.00
2018-12-22T11:58:38.365Z,1.00
2018-12-22T12:01:13.141Z,4.33
2018-12-22T12:03:49.778Z,3.00
2018-12-22T12:06:30.175Z,1.00
2018-12-22T12:09:05.064Z,1.67
2018-12-22T12:11:40.470Z,5.00
2018-12-22T12:14:20.695Z,1.00
2018-12-22T12:17:10.988Z,1.00
2018-12-22T12:19:49.423Z,2.33
2018-12-22T12:22:25.497Z,1.00
2018-12-22T12:24:59.716Z,1.00
2018-12-22T12:27:34.468Z,3.00
2018-12-22T12:30:14.263Z,1.00
2018-12-22T12:32:48.014Z,1.00
2018-12-22T12:35:24.719Z,3.00
2018-12-22T12:38:02.635Z,3.00
2018-12-22T12:40:45.445Z,3.67
2018-12-22T12:43:21.540Z,2.33
2018-12-22T12:46:01.318Z,1.00
2018-12-22T12:48:38.323Z,3.00
2018-12-22T12:51:12.116Z,1.00
2018-12-22T12:53:50.478Z,3.00
2018-12-22T12:56:25.722Z,1.00
2018-12-22T12:59:03.233Z,1.00
2018-12-22T13:01:39.686Z,1.67
2018-12-22T13:04:14.822Z,3.00
2018-12-22T13:06:52.446Z,3.00
2018-12-22T13:09:25.664Z,1.00
2018-12-22T13:12:00.714Z,1.00
2018-12-22T13:14:41.912Z,5.00
2018-12-22T13:17:20.612Z,4.33
2018-12-22T13:19:58.635Z,1.00
2018-12-22T13:22:38.496Z,3.00
2018-12-22T13:25:11.020Z,1.00
2018-12-22T13:27:45.458Z,1.67
2018-12-22T13:30:28.354Z,3.00
2018-12-22T13:33:01.699Z,1.00
2018-12-22T13:35:35.922Z,3.00
2018-12-22T13:38:10.449Z,1.00
2018-12-22T13:40:46.814Z,3.67
2018-12-22T13:43:23.601Z,1.67
2018-12-22T13:46:01.790Z,2.33
2018-12-22T13:48:34.892Z,5.00
2018-12-22T13:51:11.226Z,1.67
2018-12-22T13:53:47.846Z,3.00
2018-12-22T13:56:22.239Z,2.33
2018-12-22T13:59:01.958Z,3.00
2018-12-22T14:01:39.982Z,1.00
2018-12-22T14:04:17.090Z,3.00
2018-12-22T14:06:54.417Z,5.00
2018-12-22T14:09:33.159Z,1.00
2018-12-22T14:12:11.253Z,1.00
2018-12-22T14:14:45.291Z,1.00
2018-12-22T14:17:27.718Z,1.00
2018-12-22T14:20:13.738Z,1.00
2018-12-22T14:22:53.554Z,1.00
2018-12-22T14:25:36.062Z,1.67
2018-12-22T14:28:14.486Z,3.00
2018-12-22T14:30:48.978Z,1.67
2018-12-22T14:33:26.385Z,1.67
2018-12-22T14:36:08.523Z,3.00
2018-12-22T14:38:45.755Z,1.67
2018-12-22T14:41:22.483Z,1.00
2018-12-22T14:44:01.481Z,3.00
2018-12-22T14:46:36.368Z,1.00
2018-12-22T14:49:12.428Z,1.00
2018-12-22T14:51:45.234Z,3.00
2018-12-22T14:54:21.725Z,5.00
2018-12-22T14:56:56.901Z,2.33
2018-12-22T15:02:12.563Z,3.00
2018-12-22T15:04:47.891Z,1.67
2018-12-22T15:07:23.328Z,1.67
2018-12-22T15:09:58.292Z,1.00
2018-12-22T15:12:35.587Z,3.00
2018-12-22T15:15:23.205Z,1.00
2018-12-22T15:17:57.708Z,3.00
2018-12-22T15:20:34.612Z,3.00
2018-12-22T15:23:12.065Z,1.00
2018-12-22T15:25:51.746Z,3.00
2018-12-22T15:28:28.146Z,3.00
2018-12-22T15:31:05.622Z,3.00
2018-12-22T15:33:42.024Z,3.67
2018-12-22T15:36:17.289Z,3.00
2018-12-22T15:38:55.455Z,2.33
2018-12-22T15:41:32.416Z,2.33
2018-12-22T15:44:07.706Z,3.67
2018-12-22T15:46:44.826Z,3.00
2018-12-22T15:49:23.418Z,3.00
2018-12-22T15:52:02.233Z,1.00
2018-12-22T15:54:37.913Z,3.00
2018-12-22T15:57:13.266Z,3.00
2018-12-22T15:59:48.639Z,2.33
2018-12-22T16:02:24.686Z,1.67
2018-12-22T16:05:01.718Z,3.00
2018-12-22T16:07:40.265Z,2.33
2018-12-22T16:10:17.641Z,6.33
2018-12-22T16:12:50.689Z,5.00
2018-12-22T16:15:26.457Z,7.33
2018-12-22T16:18:04.247Z,5.00
2018-12-22T16:20:41.341Z,15.00
2018-12-22T16:23:14.594Z,10.00
2018-12-22T16:25:49.750Z,5.00
2018-12-22T16:28:29.436Z,5.80
2018-12-22T16:31:10.679Z,2.33
2018-12-22T16:33:44.466Z,3.00
2018-12-22T16:36:21.041Z,3.00
2018-12-22T16:38:57.211Z,5.00
2018-12-22T16:41:37.762Z,8.00
2018-12-22T16:44:18.368Z,4.33
2018-12-22T16:46:55.684Z,5.67
2018-12-22T16:49:30.104Z,5.60
2018-12-22T16:52:06.596Z,3.00
2018-12-22T16:54:40.202Z,5.00
2018-12-22T16:57:18.416Z,3.00
2018-12-22T16:59:54.825Z,5.00
2018-12-22T17:02:41.311Z,7.00
2018-12-22T17:05:19.144Z,3.00
2018-12-22T17:07:58.874Z,5.00
2018-12-22T17:10:40.316Z,9.33
2018-12-22T17:13:20.301Z,5.00
2018-12-22T17:18:51.920Z,5.00
2018-12-22T17:21:31.811Z,8.00
2018-12-22T17:24:17.914Z,7.33
2018-12-22T17:26:54.522Z,3.67
2018-12-22T17:29:36.090Z,5.00
2018-12-22T17:32:08.369Z,4.33
2018-12-22T17:34:44.614Z,3.00
2018-12-22T17:37:23.806Z,5.00
2018-12-22T17:39:59.801Z,4.33
2018-12-22T17:42:37.069Z,9.50
2018-12-22T17:45:15.595Z,3.40
2018-12-22T17:47:48.772Z,6.33
2018-12-22T17:50:35.549Z,3.00
2018-12-22T17:53:17.930Z,5.00
2018-12-22T17:55:57.360Z,3.00
2018-12-22T17:58:32.684Z,5.00
2018-12-22T18:01:07.223Z,6.50
2018-12-22T18:03:43.769Z,7.33
2018-12-22T18:06:24.727Z,5.00
2018-12-22T18:08:57.402Z,5.00
2018-12-22T18:11:30.231Z,5.00
2018-12-22T18:14:05.958Z,7.67
2018-12-22T18:16:37.925Z,5.00
2018-12-22T18:19:13.215Z,5.00
2018-12-22T18:21:50.971Z,8.33
2018-12-22T18:24:30.738Z,8.33
2018-12-22T18:27:08.274Z,5.00
2018-12-22T18:29:45.329Z,5.00
2018-12-22T18:32:23.276Z,10.00
2018-12-22T18:34:56.627Z,5.00
2018-12-22T18:37:33.230Z,5.00
2018-12-22T18:40:13.277Z,7.33
2018-12-22T18:42:53.208Z,8.00
2018-12-22T18:45:30.308Z,8.00
2018-12-22T18:48:07.133Z,8.00
2018-12-22T18:50:45.567Z,5.67
2018-12-22T18:53:17.861Z,3.67
2018-12-22T18:55:50.120Z,6.33
2018-12-22T18:58:24.127Z,8.00
2018-12-22T19:00:59.604Z,8.00
2018-12-22T19:03:44.766Z,6.33
2018-12-22T19:06:18.422Z,10.00
2018-12-22T19:08:56.400Z,10.00
2018-12-22T19:11:29.379Z,6.33
2018-12-22T19:14:10.033Z,7.33
2018-12-22T19:16:45.350Z,14.67
2018-12-22T19:19:26.083Z,10.00
2018-12-22T19:22:04.377Z,6.33
2018-12-22T19:24:43.963Z,6.67
2018-12-22T19:27:22.478Z,8.00
2018-12-22T19:30:00.322Z,6.33
2018-12-22T19:32:39.262Z,7.33
2018-12-22T19:35:16.814Z,8.00
2018-12-22T19:37:53.644Z,5.00
2018-12-22T19:40:25.825Z,8.00
2018-12-22T19:43:02.447Z,6.33
2018-12-22T19:45:41.206Z,7.67
2018-12-22T19:48:19.030Z,10.00
2018-12-22T19:50:58.843Z,8.00
2018-12-22T19:53:36.195Z,10.00
2018-12-22T19:56:13.830Z,8.50
2018-12-22T19:58:52.293Z,9.00
2018-12-22T20:01:26.075Z,8.67
2018-12-22T20:04:09.300Z,10.00
2018-12-22T20:06:47.385Z,10.00
2018-12-22T20:09:26.309Z,11.50
2018-12-22T20:12:02.834Z,10.00
2018-12-22T20:14:42.238Z,7.00
2018-12-22T20:17:18.769Z,8.67
2018-12-22T20:19:56.910Z,8.00
2018-12-22T20:22:32.367Z,7.00
2018-12-22T20:25:11.826Z,7.00
2018-12-22T20:27:47.717Z,9.33
2018-12-22T20:30:31.039Z,7.00
2018-12-22T20:33:16.544Z,7.00
2018-12-22T20:35:51.172Z,8.00
2018-12-22T20:38:28.436Z,7.33
2018-12-22T20:43:44.870Z,3.67
2018-12-22T20:49:08.133Z,3.67
2018-12-22T20:54:31.977Z,4.33
2018-12-22T20:57:11.647Z,5.00
2018-12-22T20:59:50.165Z,5.00
2018-12-22T21:02:27.548Z,6.33
2018-12-22T21:07:46.312Z,5.00
2018-12-22T21:10:26.438Z,6.33
2018-12-22T21:13:07.235Z,5.00
2018-12-22T21:15:47.405Z,5.33
2018-12-22T21:18:33.619Z,7.33
2018-12-22T21:21:24.793Z,6.00
2018-12-22T21:24:02.243Z,5.33
2018-12-22T21:26:42.480Z,8.00
2018-12-22T21:32:02.484Z,5.67
2018-12-22T21:34:43.072Z,5.00
2018-12-22T21:37:19.545Z,5.33
2018-12-22T21:39:59.220Z,6.67
2018-12-22T21:42:33.869Z,5.00
2018-12-22T21:45:17.490Z,6.33
2018-12-22T21:53:31.602Z,4.67
2018-12-22T21:56:08.281Z,4.00
2018-12-22T21:58:55.747Z,6.00
2018-12-22T22:01:29.230Z,5.00
2018-12-22T22:04:08.070Z,5.67
2018-12-22T22:06:45.818Z,5.00
2018-12-22T22:09:22.296Z,5.00
2018-12-22T22:12:06.252Z,10.00
2018-12-22T22:14:43.769Z,6.67
2018-12-22T22:17:22.936Z,5.67
2018-12-22T22:19:59.429Z,5.00
2018-12-22T22:22:42.040Z,5.00
2018-12-22T22:25:18.999Z,4.33
2018-12-22T22:27:52.981Z,5.00
2018-12-22T22:30:32.312Z,5.00
2018-12-22T22:33:11.682Z,5.33
2018-12-22T22:35:49.661Z,6.00
2018-12-22T22:41:06.117Z,6.00
2018-12-22T22:43:39.984Z,4.33
2018-12-22T22:46:15.359Z,7.33
2018-12-22T22:48:53.778Z,3.00
2018-12-22T22:54:12.724Z,3.40
2018-12-22T22:56:50.168Z,5.00
2018-12-22T22:59:29.394Z,5.00
2018-12-22T23:02:08.448Z,5.00
2018-12-22T23:04:54.325Z,6.33
2018-12-22T23:07:35.915Z,3.67
2018-12-22T23:10:13.386Z,3.00
2018-12-22T23:12:51.170Z,5.67
2018-12-22T23:15:27.599Z,3.00
2018-12-22T23:18:01.542Z,7.00
2018-12-22T23:20:40.235Z,7.67
2018-12-22T23:23:13.814Z,6.33
2018-12-22T23:25:49.087Z,7.00
2018-12-22T23:28:23.366Z,5.00
2018-12-22T23:31:00.263Z,5.00
2018-12-22T23:33:34.034Z,3.67
2018-12-22T23:36:12.846Z,10.50
2018-12-22T23:38:45.998Z,5.00
2018-12-22T23:41:19.817Z,5.00
2018-12-22T23:43:55.091Z,5.00
2018-12-22T23:46:27.393Z,8.00
2018-12-22T23:49:02.570Z,6.33
2018-12-22T23:51:38.743Z,8.00
2018-12-22T23:54:15.172Z,5.00
2018-12-22T23:56:50.118Z,3.67
2018-12-22T23:59:23.715Z,5.00
